Time;durP1;ratioP1;P1;durP2;ratioP2;P2;SDS_P1;SDS_P2;PMS_P1;PMS_P2;Temp;Humidity;BMP_temperature;BMP_pressure;BME280_temperature;BME280_humidity;BME280_pressure;Samples;Min_cycle;Max_cycle;Signal;HPM_P1;HPM_P2
2024/03/17 00:01:19;;;;;;;38.85;8.48;;;;;;;;;;4998052;28;20037;-68
2024/03/17 00:03:45;;;;;;;26.42;7.93;;;;;;;;;;5032189;28;20045;-66
2024/03/17 00:06:10;;;;;;;38.05;9.48;;;;;;;;;;5031109;28;20041;-68
2024/03/17 00:08:36;;;;;;;42.83;8.55;;;;;;;;;;5030860;28;20039;-67
2024/03/17 00:11:01;;;;;;;26.40;7.22;;;;;;;;;;5032095;28;20037;-67
2024/03/17 00:13:27;;;;;;;33.42;7.85;;;;;;;;;;5031984;28;20490;-68
2024/03/17 00:15:52;;;;;;;25.73;8.07;;;;;;;;;;5032359;28;20034;-69
2024/03/17 00:18:18;;;;;;;29.83;7.45;;;;;;;;;;5014206;28;20080;-69
2024/03/17 00:20:44;;;;;;;35.88;8.20;;;;;;;;;;5030729;28;20128;-69
2024/03/17 00:23:11;;;;;;;34.17;8.50;;;;;;;;;;5030727;28;20107;-68
2024/03/17 00:25:38;;;;;;;34.38;9.15;;;;;;;;;;5032108;28;20475;-68
2024/03/17 00:28:04;;;;;;;28.58;8.40;;;;;;;;;;5014129;28;20075;-67
2024/03/17 00:30:31;;;;;;;29.38;7.40;;;;;;;;;;5030435;28;20087;-69
2024/03/17 00:32:58;;;;;;;28.60;8.77;;;;;;;;;;5031696;28;20414;-69
2024/03/17 00:35:24;;;;;;;34.17;8.65;;;;;;;;;;5031624;28;20141;-67
2024/03/17 00:37:50;;;;;;;25.65;8.07;;;;;;;;;;5030730;28;20465;-67
2024/03/17 00:40:19;;;;;;;42.58;8.73;;;;;;;;;;5031548;28;20117;-67
2024/03/17 00:42:46;;;;;;;24.98;8.07;;;;;;;;;;5030276;28;20068;-73
2024/03/17 00:45:12;;;;;;;29.83;8.32;;;;;;;;;;5032229;28;20041;-69
2024/03/17 00:47:37;;;;;;;25.95;8.27;;;;;;;;;;5031537;28;20041;-69
2024/03/17 00:50:11;;;;;;;37.45;8.77;;;;;;;;;;5031850;28;20041;-69
2024/03/17 00:52:37;;;;;;;30.90;7.45;;;;;;;;;;5063591;28;20038;-68
2024/03/17 00:55:02;;;;;;;26.33;8.00;;;;;;;;;;5030060;28;20128;-68
2024/03/17 00:57:30;;;;;;;40.08;11.38;;;;;;;;;;5030550;28;20449;-68
2024/03/17 00:59:56;;;;;;;36.13;8.77;;;;;;;;;;5030121;28;20060;-68
2024/03/17 01:02:22;;;;;;;45.97;9.18;;;;;;;;;;5031444;28;20037;-69
2024/03/17 01:04:47;;;;;;;25.42;7.72;;;;;;;;;;5030246;28;20127;-69
2024/03/17 01:07:13;;;;;;;37.20;8.93;;;;;;;;;;5031660;28;20099;-69
2024/03/17 01:09:39;;;;;;;35.97;8.45;;;;;;;;;;5013700;28;20033;-66
2024/03/17 01:12:05;;;;;;;28.35;7.55;;;;;;;;;;5030041;28;20037;-70
2024/03/17 01:14:31;;;;;;;37.42;8.50;;;;;;;;;;5031437;28;20065;-69
2024/03/17 01:16:57;;;;;;;29.67;8.02;;;;;;;;;;5031591;28;20068;-68
2024/03/17 01:19:23;;;;;;;30.48;8.05;;;;;;;;;;5030126;28;20067;-70
2024/03/17 01:21:48;;;;;;;32.13;8.55;;;;;;;;;;5031496;28;20410;-70
2024/03/17 01:24:14;;;;;;;27.98;8.25;;;;;;;;;;5029765;28;20342;-69
2024/03/17 01:26:40;;;;;;;27.85;8.70;;;;;;;;;;5031208;28;20099;-69
2024/03/17 01:29:05;;;;;;;40.90;8.38;;;;;;;;;;5030958;28;20392;-69
2024/03/17 01:31:31;;;;;;;35.15;7.97;;;;;;;;;;5031804;28;20410;-71
2024/03/17 01:33:56;;;;;;;32.15;8.23;;;;;;;;;;5035469;28;20041;-69
2024/03/17 01:36:22;;;;;;;28.10;7.90;;;;;;;;;;5035128;28;20041;-70
2024/03/17 01:38:48;;;;;;;27.33;7.97;;;;;;;;;;5033753;28;20037;-69
2024/03/17 01:41:14;;;;;;;35.85;8.50;;;;;;;;;;5034900;28;20049;-70
2024/03/17 01:43:40;;;;;;;27.08;8.43;;;;;;;;;;5034953;28;20041;-69
2024/03/17 01:46:07;;;;;;;33.80;8.02;;;;;;;;;;5035007;28;20045;-71
2024/03/17 01:48:33;;;;;;;32.42;8.13;;;;;;;;;;5033849;28;20425;-70
2024/03/17 01:50:58;;;;;;;28.77;9.02;;;;;;;;;;5035163;28;20506;-71
2024/03/17 01:53:25;;;;;;;34.38;8.35;;;;;;;;;;5033534;28;20065;-69
2024/03/17 01:55:51;;;;;;;26.25;7.68;;;;;;;;;;5034946;28;20120;-70
2024/03/17 01:58:19;;;;;;;32.72;9.18;;;;;;;;;;5033381;28;20037;-69
2024/03/17 02:00:45;;;;;;;36.05;8.13;;;;;;;;;;5033409;28;20029;-71
2024/03/17 02:03:12;;;;;;;23.77;7.43;;;;;;;;;;5034628;28;20096;-69
2024/03/17 02:05:38;;;;;;;29.08;8.60;;;;;;;;;;5034797;28;20069;-69
2024/03/17 02:08:04;;;;;;;24.00;8.13;;;;;;;;;;5034607;28;20033;-68
2024/03/17 02:10:30;;;;;;;24.58;8.30;;;;;;;;;;5034598;28;20037;-67
2024/03/17 02:12:55;;;;;;;38.55;8.38;;;;;;;;;;5016671;28;20052;-67
2024/03/17 02:15:21;;;;;;;23.33;8.13;;;;;;;;;;5034799;28;20029;-67
2024/03/17 02:17:47;;;;;;;30.45;7.90;;;;;;;;;;5000527;28;20043;-68
2024/03/17 02:20:14;;;;;;;30.60;8.07;;;;;;;;;;5034728;28;20059;-68
2024/03/17 02:22:39;;;;;;;29.77;7.50;;;;;;;;;;5033242;28;20038;-66
2024/03/17 02:25:08;;;;;;;30.70;9.52;;;;;;;;;;5034591;28;20041;-69
2024/03/17 02:27:36;;;;;;;38.42;8.43;;;;;;;;;;5033000;28;20125;-67
2024/03/17 02:30:09;;;;;;;35.90;9.30;;;;;;;;;;5034132;28;20595;-69
2024/03/17 02:32:35;;;;;;;26.95;7.88;;;;;;;;;;5034332;28;20042;-70
2024/03/17 02:35:01;;;;;;;31.77;8.32;;;;;;;;;;5016444;28;20033;-68
2024/03/17 02:37:26;;;;;;;30.60;8.45;;;;;;;;;;5033005;28;20041;-69
2024/03/17 02:39:52;;;;;;;24.55;9.00;;;;;;;;;;5034158;28;20060;-65
2024/03/17 02:42:18;;;;;;;27.02;8.80;;;;;;;;;;5032232;28;20069;-68
2024/03/17 02:44:44;;;;;;;28.40;8.80;;;;;;;;;;5033574;28;20052;-67
2024/03/17 02:47:09;;;;;;;31.30;8.95;;;;;;;;;;5034134;28;20060;-67
2024/03/17 02:49:43;;;;;;;27.50;9.55;;;;;;;;;;5034034;28;20044;-68
2024/03/17 02:52:10;;;;;;;22.92;8.30;;;;;;;;;;5034096;28;20037;-68
2024/03/17 02:54:36;;;;;;;42.65;9.80;;;;;;;;;;5034032;28;20087;-67
2024/03/17 02:57:02;;;;;;;36.05;9.63;;;;;;;;;;5033690;28;20414;-68
2024/03/17 02:59:28;;;;;;;34.05;9.55;;;;;;;;;;5015886;28;20486;-68
2024/03/17 03:01:54;;;;;;;27.08;8.85;;;;;;;;;;5032381;28;20174;-67
2024/03/17 03:04:20;;;;;;;28.40;9.23;;;;;;;;;;5015792;28;20525;-67
2024/03/17 03:06:45;;;;;;;39.53;10.25;;;;;;;;;;5033772;28;20112;-67
2024/03/17 03:09:20;;;;;;;33.88;9.52;;;;;;;;;;5032038;28;20067;-67
2024/03/17 03:11:46;;;;;;;31.00;9.13;;;;;;;;;;5032579;28;20128;-68
2024/03/17 03:14:12;;;;;;;39.03;10.80;;;;;;;;;;5032165;28;20033;-67
2024/03/17 03:16:38;;;;;;;31.67;10.05;;;;;;;;;;5033523;28;20033;-68
2024/03/17 03:19:05;;;;;;;31.23;9.63;;;;;;;;;;5033476;28;20040;-67
2024/03/17 03:21:31;;;;;;;35.33;9.88;;;;;;;;;;5032253;28;20048;-67
2024/03/17 03:23:56;;;;;;;33.35;9.15;;;;;;;;;;5033310;28;20049;-68
2024/03/17 03:26:23;;;;;;;40.88;9.25;;;;;;;;;;5033449;28;20033;-68
2024/03/17 03:28:49;;;;;;;47.05;9.95;;;;;;;;;;5031668;28;20037;-68
2024/03/17 03:31:15;;;;;;;30.38;10.60;;;;;;;;;;5032100;28;20044;-68
2024/03/17 03:33:41;;;;;;;38.35;9.95;;;;;;;;;;5033189;28;20049;-68
2024/03/17 03:36:10;;;;;;;34.35;9.45;;;;;;;;;;5032003;28;20064;-68
2024/03/17 03:38:36;;;;;;;26.23;9.50;;;;;;;;;;5032813;28;20037;-66
2024/03/17 03:41:14;;;;;;;32.92;10.27;;;;;;;;;;5032853;28;20172;-68
2024/03/17 03:43:40;;;;;;;20.40;9.05;;;;;;;;;;5012583;28;20115;-67
2024/03/17 03:46:07;;;;;;;37.67;10.73;;;;;;;;;;5013314;28;20034;-68
2024/03/17 03:48:34;;;;;;;31.80;11.75;;;;;;;;;;5011575;28;20036;-68
2024/03/17 03:51:03;;;;;;;33.53;9.82;;;;;;;;;;5011713;28;20464;-68
2024/03/17 03:53:29;;;;;;;32.83;11.40;;;;;;;;;;5012869;28;20026;-69
2024/03/17 03:55:54;;;;;;;41.15;10.77;;;;;;;;;;5012280;28;20056;-68
2024/03/17 03:58:21;;;;;;;40.40;11.02;;;;;;;;;;5012720;28;20030;-67
2024/03/17 04:00:46;;;;;;;41.10;11.35;;;;;;;;;;5012739;28;20488;-69
2024/03/17 04:03:12;;;;;;;35.10;11.57;;;;;;;;;;5011241;28;20041;-67
2024/03/17 04:05:38;;;;;;;37.10;10.70;;;;;;;;;;5012948;28;20048;-67
2024/03/17 04:08:04;;;;;;;39.33;12.23;;;;;;;;;;5012670;28;20121;-67
2024/03/17 04:10:30;;;;;;;30.15;10.82;;;;;;;;;;5012764;28;20069;-68
2024/03/17 04:12:57;;;;;;;27.73;11.35;;;;;;;;;;5011486;28;20087;-69
2024/03/17 04:15:23;;;;;;;29.25;10.95;;;;;;;;;;5011426;28;20041;-68
2024/03/17 04:17:49;;;;;;;37.58;10.88;;;;;;;;;;5012585;28;20503;-67
2024/03/17 04:20:15;;;;;;;29.80;10.10;;;;;;;;;;5011446;28;20180;-68
2024/03/17 04:22:40;;;;;;;38.20;10.75;;;;;;;;;;5012356;28;20079;-67
2024/03/17 04:25:06;;;;;;;31.17;11.60;;;;;;;;;;5011243;28;20128;-68
2024/03/17 04:27:32;;;;;;;39.50;11.60;;;;;;;;;;5012412;28;20087;-69
2024/03/17 04:29:58;;;;;;;30.52;11.93;;;;;;;;;;5012397;28;20034;-66
2024/03/17 04:32:24;;;;;;;27.17;10.98;;;;;;;;;;5012052;28;20444;-68
2024/03/17 04:34:50;;;;;;;34.53;11.30;;;;;;;;;;5010813;28;20080;-69
2024/03/17 04:37:16;;;;;;;47.00;13.52;;;;;;;;;;5012075;28;20038;-68
2024/03/17 04:39:43;;;;;;;40.30;16.33;;;;;;;;;;5010905;28;20132;-67
2024/03/17 04:42:09;;;;;;;37.83;13.05;;;;;;;;;;5019726;28;20096;-67
2024/03/17 04:44:35;;;;;;;46.83;13.75;;;;;;;;;;5031661;28;20076;-67
2024/03/17 04:47:01;;;;;;;44.20;17.75;;;;;;;;;;5031868;28;20072;-68
2024/03/17 04:49:26;;;;;;;43.10;14.07;;;;;;;;;;5030441;28;20552;-69
2024/03/17 04:51:52;;;;;;;36.10;13.00;;;;;;;;;;5031557;28;20041;-71
2024/03/17 04:54:17;;;;;;;44.75;15.02;;;;;;;;;;5030307;28;20106;-68
2024/03/17 04:56:43;;;;;;;41.15;16.25;;;;;;;;;;5030096;28;20033;-69
2024/03/17 04:59:09;;;;;;;46.97;14.85;;;;;;;;;;5030022;28;20129;-68
2024/03/17 05:01:38;;;;;;;35.70;15.70;;;;;;;;;;5031525;28;20479;-68
2024/03/17 05:04:03;;;;;;;48.20;16.35;;;;;;;;;;5031338;28;20081;-67
2024/03/17 05:06:29;;;;;;;35.85;16.92;;;;;;;;;;5029878;28;20119;-69
2024/03/17 05:08:55;;;;;;;40.35;16.02;;;;;;;;;;5031019;28;20040;-67
2024/03/17 05:11:20;;;;;;;48.60;20.15;;;;;;;;;;5029514;28;20037;-69
2024/03/17 05:13:46;;;;;;;47.25;18.55;;;;;;;;;;5031210;28;20468;-68
2024/03/17 05:16:11;;;;;;;52.10;21.25;;;;;;;;;;5031421;28;20510;-68
2024/03/17 05:18:39;;;;;;;49.80;18.67;;;;;;;;;;5029848;28;20044;-67
2024/03/17 05:21:05;;;;;;;40.33;17.00;;;;;;;;;;5030979;28;20140;-67
2024/03/17 05:23:32;;;;;;;36.40;13.57;;;;;;;;;;5031061;28;20045;-66
2024/03/17 05:25:58;;;;;;;43.78;13.32;;;;;;;;;;5031099;28;20088;-69
2024/03/17 05:28:25;;;;;;;31.02;12.15;;;;;;;;;;5031060;28;20050;-67
2024/03/17 05:30:50;;;;;;;30.23;12.57;;;;;;;;;;5030898;28;20037;-68
2024/03/17 05:33:21;;;;;;;33.42;12.63;;;;;;;;;;5031230;28;20067;-67
2024/03/17 05:35:58;;;;;;;33.75;11.55;;;;;;;;;;5013454;28;20259;-67
2024/03/17 05:38:24;;;;;;;38.25;12.40;;;;;;;;;;5013148;28;20033;-67
2024/03/17 05:40:53;;;;;;;32.28;12.02;;;;;;;;;;5013359;28;20729;-68
2024/03/17 05:43:19;;;;;;;30.17;12.38;;;;;;;;;;5030833;28;20107;-66
2024/03/17 05:45:44;;;;;;;37.35;12.60;;;;;;;;;;5029577;28;20042;-69
2024/03/17 05:48:10;;;;;;;40.42;19.55;;;;;;;;;;5047274;28;20368;-67
2024/03/17 05:50:35;;;;;;;29.65;12.25;;;;;;;;;;5049731;28;20037;-68
2024/03/17 05:53:01;;;;;;;32.08;12.65;;;;;;;;;;5049239;28;20410;-67
2024/03/17 05:55:26;;;;;;;31.85;11.48;;;;;;;;;;5051122;28;20125;-69
2024/03/17 05:57:53;;;;;;;43.15;12.48;;;;;;;;;;5050602;28;20048;-67
2024/03/17 06:00:19;;;;;;;28.77;11.70;;;;;;;;;;5050810;28;20094;-67
2024/03/17 06:02:46;;;;;;;33.75;11.38;;;;;;;;;;5049391;28;20037;-64
2024/03/17 06:05:14;;;;;;;39.47;12.13;;;;;;;;;;5032824;28;20182;-67
2024/03/17 06:07:39;;;;;;;27.98;11.73;;;;;;;;;;5048900;28;20045;-65
2024/03/17 06:10:06;;;;;;;36.17;12.18;;;;;;;;;;5031139;28;20037;-68
2024/03/17 06:12:31;;;;;;;34.35;11.63;;;;;;;;;;5030914;28;20029;-67
2024/03/17 06:14:57;;;;;;;34.55;11.48;;;;;;;;;;5030936;28;20038;-67
2024/03/17 06:17:22;;;;;;;36.58;11.40;;;;;;;;;;5031201;28;20037;-68
2024/03/17 06:19:48;;;;;;;41.60;13.38;;;;;;;;;;5034106;28;20029;-67
2024/03/17 06:22:14;;;;;;;27.27;12.18;;;;;;;;;;5033120;28;20045;-67
2024/03/17 06:24:39;;;;;;;30.48;11.45;;;;;;;;;;5034389;28;20045;-67
2024/03/17 06:27:05;;;;;;;28.60;10.73;;;;;;;;;;5033243;28;20029;-67
2024/03/17 06:29:32;;;;;;;27.60;12.05;;;;;;;;;;5034057;28;20049;-68
2024/03/17 06:31:58;;;;;;;42.92;11.77;;;;;;;;;;5033975;28;20128;-67
2024/03/17 06:34:23;;;;;;;35.03;11.95;;;;;;;;;;5032677;28;20125;-68
2024/03/17 06:36:49;;;;;;;30.83;11.38;;;;;;;;;;5033721;28;20034;-67
2024/03/17 06:39:15;;;;;;;33.50;12.27;;;;;;;;;;5033815;28;20491;-65
2024/03/17 06:41:42;;;;;;;36.40;14.40;;;;;;;;;;5014131;28;20069;-65
2024/03/17 06:44:08;;;;;;;31.63;12.13;;;;;;;;;;5025807;28;20049;-66
2024/03/17 06:46:33;;;;;;;33.78;13.35;;;;;;;;;;5066046;28;20030;-70
2024/03/17 06:49:00;;;;;;;31.38;12.60;;;;;;;;;;5033433;28;20041;-67
2024/03/17 06:51:26;;;;;;;35.45;12.55;;;;;;;;;;5036386;28;20117;-66
2024/03/17 06:53:51;;;;;;;35.13;12.05;;;;;;;;;;5032504;28;20076;-68
2024/03/17 06:56:18;;;;;;;38.03;12.20;;;;;;;;;;5016976;28;20045;-67
2024/03/17 06:58:44;;;;;;;32.83;12.65;;;;;;;;;;5015955;28;20044;-67
2024/03/17 07:01:09;;;;;;;26.63;12.95;;;;;;;;;;5032238;28;20037;-67
2024/03/17 07:03:35;;;;;;;44.67;12.93;;;;;;;;;;5033511;28;20414;-68
2024/03/17 07:06:05;;;;;;;35.58;12.45;;;;;;;;;;5032360;28;20041;-67
2024/03/17 07:08:31;;;;;;;37.83;12.10;;;;;;;;;;5031150;28;20045;-66
2024/03/17 07:11:02;;;;;;;36.45;13.23;;;;;;;;;;5032216;28;20046;-68
2024/03/17 07:13:35;;;;;;;41.00;13.75;;;;;;;;;;4999387;28;20029;-65
2024/03/17 07:16:07;;;;;;;38.45;13.88;;;;;;;;;;5032131;28;20075;-68
2024/03/17 07:18:33;;;;;;;32.55;13.30;;;;;;;;;;5032163;28;20068;-67
2024/03/17 07:21:00;;;;;;;33.30;12.82;;;;;;;;;;5033656;28;20118;-66
2024/03/17 07:23:26;;;;;;;41.45;13.52;;;;;;;;;;5031603;28;20057;-67
2024/03/17 07:25:52;;;;;;;34.42;13.13;;;;;;;;;;5015325;28;20088;-65
2024/03/17 07:28:18;;;;;;;33.80;13.27;;;;;;;;;;5030311;28;20072;-66
2024/03/17 07:30:48;;;;;;;41.28;12.80;;;;;;;;;;4999972;28;20034;-67
2024/03/17 07:33:13;;;;;;;34.58;12.77;;;;;;;;;;5030875;28;20053;-66
2024/03/17 07:35:46;;;;;;;36.25;13.48;;;;;;;;;;5031214;28;20506;-66
2024/03/17 07:38:12;;;;;;;33.88;12.70;;;;;;;;;;5031024;28;20129;-66
2024/03/17 07:40:37;;;;;;;36.33;11.98;;;;;;;;;;5030342;28;20163;-67
2024/03/17 07:43:03;;;;;;;47.88;13.73;;;;;;;;;;5009328;28;20139;-65
2024/03/17 07:45:29;;;;;;;31.50;12.88;;;;;;;;;;5028840;28;20040;-66
2024/03/17 07:47:55;;;;;;;33.80;13.00;;;;;;;;;;5031613;28;20041;-67
2024/03/17 07:50:21;;;;;;;31.73;12.38;;;;;;;;;;5030059;28;20116;-68
2024/03/17 07:52:46;;;;;;;34.50;12.10;;;;;;;;;;5030606;28;20192;-69
2024/03/17 07:55:12;;;;;;;39.08;13.93;;;;;;;;;;5030506;28;20144;-67
2024/03/17 07:57:38;;;;;;;31.27;12.50;;;;;;;;;;5034021;28;20535;-68
2024/03/17 08:00:04;;;;;;;33.25;12.02;;;;;;;;;;5029386;28;20053;-66
2024/03/17 08:02:30;;;;;;;38.50;12.57;;;;;;;;;;5029192;28;20505;-65
2024/03/17 08:04:56;;;;;;;31.95;12.02;;;;;;;;;;5030433;28;20037;-65
2024/03/17 08:07:22;;;;;;;31.75;11.57;;;;;;;;;;5031895;28;20073;-68
2024/03/17 08:09:47;;;;;;;40.33;12.15;;;;;;;;;;5031261;28;20042;-68
2024/03/17 08:12:13;;;;;;;38.22;13.23;;;;;;;;;;5030672;28;20044;-69
2024/03/17 08:14:38;;;;;;;26.73;12.98;;;;;;;;;;5030307;28;20033;-67
2024/03/17 08:17:06;;;;;;;27.95;11.88;;;;;;;;;;5013949;28;20095;-68
2024/03/17 08:19:31;;;;;;;29.20;12.15;;;;;;;;;;5031984;28;20030;-67
2024/03/17 08:21:57;;;;;;;36.72;13.95;;;;;;;;;;5031203;28;20041;-65
2024/03/17 08:24:22;;;;;;;33.35;11.90;;;;;;;;;;5031803;28;20388;-69
2024/03/17 08:26:48;;;;;;;32.45;11.68;;;;;;;;;;5031282;28;20075;-70
2024/03/17 08:29:13;;;;;;;28.17;12.95;;;;;;;;;;5014071;28;20044;-70
2024/03/17 08:31:39;;;;;;;38.15;13.68;;;;;;;;;;5030865;28;20044;-70
2024/03/17 08:34:05;;;;;;;35.78;13.23;;;;;;;;;;5031944;28;20037;-68
2024/03/17 08:36:31;;;;;;;35.15;12.48;;;;;;;;;;5031673;28;20033;-71
2024/03/17 08:38:58;;;;;;;31.70;12.57;;;;;;;;;;5005737;28;20072;-66
2024/03/17 08:41:24;;;;;;;32.10;12.85;;;;;;;;;;5014762;28;20087;-71
2024/03/17 08:43:49;;;;;;;37.97;13.43;;;;;;;;;;5031517;28;20053;-66
2024/03/17 08:46:15;;;;;;;33.55;13.88;;;;;;;;;;5031533;28;20163;-65
2024/03/17 08:48:42;;;;;;;26.27;11.85;;;;;;;;;;5031515;28;20507;-67
2024/03/17 08:51:10;;;;;;;43.25;13.57;;;;;;;;;;5030124;28;20045;-68
2024/03/17 08:53:38;;;;;;;36.50;12.90;;;;;;;;;;5011305;28;20038;-68
2024/03/17 08:56:06;;;;;;;30.15;11.63;;;;;;;;;;5020536;28;20152;-66
2024/03/17 08:58:31;;;;;;;43.17;12.85;;;;;;;;;;5029711;28;20037;-67
2024/03/17 09:00:57;;;;;;;30.67;13.13;;;;;;;;;;5030016;28;20132;-69
2024/03/17 09:03:24;;;;;;;36.35;12.63;;;;;;;;;;5028909;28;20403;-68
2024/03/17 09:05:50;;;;;;;37.95;12.73;;;;;;;;;;5031028;28;20597;-68
2024/03/17 09:08:20;;;;;;;38.28;12.85;;;;;;;;;;5029343;28;20497;-67
2024/03/17 09:10:47;;;;;;;37.03;13.10;;;;;;;;;;5029315;28;20091;-67
2024/03/17 09:13:17;;;;;;;32.47;12.52;;;;;;;;;;5030472;28;20041;-69
2024/03/17 09:16:02;;;;;;;30.52;12.73;;;;;;;;;;5031012;28;20156;-67
2024/03/17 09:18:35;;;;;;;28.60;11.93;;;;;;;;;;5029194;28;20768;-66
2024/03/17 09:21:02;;;;;;;32.08;12.98;;;;;;;;;;5030237;28;20032;-66
2024/03/17 09:23:29;;;;;;;35.05;13.10;;;;;;;;;;5027749;28;20041;-67
2024/03/17 09:25:58;;;;;;;41.05;14.25;;;;;;;;;;5030535;28;20041;-66
2024/03/17 09:28:24;;;;;;;26.48;12.07;;;;;;;;;;5028917;28;20052;-67
2024/03/17 09:30:52;;;;;;;28.85;13.38;;;;;;;;;;5029585;28;20037;-66
2024/03/17 09:33:21;;;;;;;35.47;13.45;;;;;;;;;;5029235;28;20060;-65
2024/03/17 09:35:53;;;;;;;32.80;12.88;;;;;;;;;;5030912;28;20052;-65
2024/03/17 09:38:19;;;;;;;37.50;13.52;;;;;;;;;;5028679;28;20062;-66
2024/03/17 09:40:49;;;;;;;33.80;13.30;;;;;;;;;;5030403;28;20053;-67
2024/03/17 09:43:15;;;;;;;36.30;13.48;;;;;;;;;;5028650;28;20053;-68
2024/03/17 09:45:40;;;;;;;30.30;12.43;;;;;;;;;;5030713;28;20042;-67
2024/03/17 09:48:07;;;;;;;25.23;11.52;;;;;;;;;;5029423;28;20116;-67
2024/03/17 09:50:34;;;;;;;28.08;11.38;;;;;;;;;;5030619;28;20049;-66
2024/03/17 09:52:59;;;;;;;33.67;11.55;;;;;;;;;;5030540;28;20040;-66
2024/03/17 09:55:25;;;;;;;33.25;11.63;;;;;;;;;;5034603;28;20041;-64
2024/03/17 09:57:50;;;;;;;36.60;12.05;;;;;;;;;;5034634;28;20041;-66
2024/03/17 10:00:16;;;;;;;33.85;13.05;;;;;;;;;;5033030;28;20063;-66
2024/03/17 10:02:45;;;;;;;32.90;12.38;;;;;;;;;;5034028;28;20029;-65
2024/03/17 10:05:21;;;;;;;32.63;11.43;;;;;;;;;;5034106;28;20129;-67
2024/03/17 10:07:48;;;;;;;40.20;13.77;;;;;;;;;;5033517;28;20030;-66
2024/03/17 10:10:13;;;;;;;32.65;11.25;;;;;;;;;;5032673;28;20086;-67
2024/03/17 10:12:39;;;;;;;26.48;10.93;;;;;;;;;;5034146;28;20030;-65
2024/03/17 10:15:05;;;;;;;35.80;11.13;;;;;;;;;;5016335;28;20029;-67
2024/03/17 10:17:35;;;;;;;33.15;11.43;;;;;;;;;;5034088;28;20033;-66
2024/03/17 10:20:15;;;;;;;30.85;12.52;;;;;;;;;;5033103;28;20041;-68
2024/03/17 10:22:58;;;;;;;32.50;11.63;;;;;;;;;;5033301;28;20042;-67
2024/03/17 10:25:24;;;;;;;29.00;11.30;;;;;;;;;;5033966;28;20037;-67
2024/03/17 10:27:50;;;;;;;38.28;12.55;;;;;;;;;;5032357;28;20075;-66
2024/03/17 10:30:19;;;;;;;33.83;11.50;;;;;;;;;;5033992;28;20478;-67
2024/03/17 10:32:45;;;;;;;25.17;10.40;;;;;;;;;;5033652;28;20543;-67
2024/03/17 10:35:29;;;;;;;32.88;12.05;;;;;;;;;;5030934;28;20303;-67
2024/03/17 10:38:02;;;;;;;35.83;13.45;;;;;;;;;;5031300;28;20041;-67
2024/03/17 10:40:29;;;;;;;35.85;11.25;;;;;;;;;;5032226;28;20045;-65
2024/03/17 10:42:55;;;;;;;30.38;12.55;;;;;;;;;;5032091;28;20119;-65
2024/03/17 10:45:21;;;;;;;39.78;12.00;;;;;;;;;;5033592;28;20073;-65
2024/03/17 10:47:49;;;;;;;31.13;12.18;;;;;;;;;;5033755;28;20037;-66
2024/03/17 10:50:19;;;;;;;28.90;11.75;;;;;;;;;;5031707;28;20018;-67
2024/03/17 10:52:46;;;;;;;35.60;13.18;;;;;;;;;;5031873;28;20053;-66
2024/03/17 10:55:19;;;;;;;29.02;11.98;;;;;;;;;;5032991;28;20044;-67
2024/03/17 10:57:48;;;;;;;30.92;11.27;;;;;;;;;;5033984;28;20045;-67
2024/03/17 11:00:19;;;;;;;30.83;11.50;;;;;;;;;;5032110;28;20446;-67
2024/03/17 11:02:45;;;;;;;31.13;11.23;;;;;;;;;;5015766;28;20037;-67
2024/03/17 11:05:34;;;;;;;25.55;11.13;;;;;;;;;;5035906;28;20406;-71
2024/03/17 11:08:01;;;;;;;31.50;12.95;;;;;;;;;;5032187;28;20080;-67
2024/03/17 11:10:29;;;;;;;32.78;12.48;;;;;;;;;;5015990;28;20042;-68
2024/03/17 11:12:58;;;;;;;34.10;12.05;;;;;;;;;;5032048;28;20037;-67
2024/03/17 11:15:33;;;;;;;32.15;12.68;;;;;;;;;;5033293;28;20033;-68
2024/03/17 11:18:11;;;;;;;43.45;12.52;;;;;;;;;;5033257;28;20442;-67
2024/03/17 11:20:39;;;;;;;31.52;11.82;;;;;;;;;;5032960;28;20143;-65
2024/03/17 11:23:05;;;;;;;29.75;13.40;;;;;;;;;;5032609;28;20029;-69
2024/03/17 11:25:31;;;;;;;46.80;13.05;;;;;;;;;;5031852;28;20045;-70
2024/03/17 11:27:57;;;;;;;36.90;12.93;;;;;;;;;;5032962;28;20072;-67
2024/03/17 11:30:46;;;;;;;37.03;11.45;;;;;;;;;;5033316;28;20410;-70
2024/03/17 11:33:30;;;;;;;35.72;12.05;;;;;;;;;;5031441;28;20034;-69
2024/03/17 11:36:16;;;;;;;33.10;11.63;;;;;;;;;;5031711;28;20431;-68
2024/03/17 11:39:01;;;;;;;30.63;12.93;;;;;;;;;;5031393;28;20499;-64
2024/03/17 11:41:34;;;;;;;34.78;11.95;;;;;;;;;;5032778;28;20167;-68
2024/03/17 11:44:18;;;;;;;32.47;11.90;;;;;;;;;;5031677;28;20041;-64
2024/03/17 11:46:45;;;;;;;30.05;11.73;;;;;;;;;;5030136;28;20414;-69
2024/03/17 11:49:20;;;;;;;27.55;10.88;;;;;;;;;;5014528;28;20025;-64
2024/03/17 11:51:46;;;;;;;32.80;11.75;;;;;;;;;;5026440;28;20038;-65
2024/03/17 11:54:19;;;;;;;30.05;13.43;;;;;;;;;;5029890;28;20037;-64
2024/03/17 11:56:49;;;;;;;31.40;10.93;;;;;;;;;;5027746;28;20053;-63
2024/03/17 11:59:17;;;;;;;34.95;11.80;;;;;;;;;;5029811;28;20022;-65
2024/03/17 12:01:49;;;;;;;35.00;10.98;;;;;;;;;;5032508;28;20037;-66
2024/03/17 12:04:15;;;;;;;31.90;11.23;;;;;;;;;;5025065;28;20516;-66
2024/03/17 12:06:47;;;;;;;28.70;10.80;;;;;;;;;;5031412;28;20037;-68
2024/03/17 12:09:16;;;;;;;25.60;10.20;;;;;;;;;;5032281;28;20040;-64
2024/03/17 12:11:41;;;;;;;36.92;10.90;;;;;;;;;;5032261;28;20041;-64
2024/03/17 12:14:33;;;;;;;32.10;10.55;;;;;;;;;;5031959;28;20160;-64
2024/03/17 12:17:00;;;;;;;34.47;11.55;;;;;;;;;;5028776;28;20526;-65
2024/03/17 12:19:26;;;;;;;36.33;11.32;;;;;;;;;;5032180;28;20034;-65
2024/03/17 12:21:53;;;;;;;33.80;11.88;;;;;;;;;;5032342;28;20051;-65
2024/03/17 12:24:21;;;;;;;34.10;11.15;;;;;;;;;;5030657;28;20045;-62
2024/03/17 12:26:47;;;;;;;29.50;10.95;;;;;;;;;;5032356;28;20067;-64
2024/03/17 12:29:30;;;;;;;27.77;10.20;;;;;;;;;;5031743;28;20032;-65
2024/03/17 12:31:57;;;;;;;31.85;11.15;;;;;;;;;;5031962;28;20460;-64
2024/03/17 12:34:24;;;;;;;28.75;10.93;;;;;;;;;;5013991;28;20442;-64
2024/03/17 12:36:50;;;;;;;33.40;10.50;;;;;;;;;;5032213;28;20065;-67
2024/03/17 12:39:22;;;;;;;32.33;10.75;;;;;;;;;;5030253;28;20064;-64
2024/03/17 12:42:04;;;;;;;33.38;10.57;;;;;;;;;;5030974;28;20103;-66
2024/03/17 12:44:33;;;;;;;31.48;10.35;;;;;;;;;;5030910;28;20041;-64
2024/03/17 12:47:02;;;;;;;33.13;9.85;;;;;;;;;;5031210;28;20051;-63
2024/03/17 12:49:29;;;;;;;27.38;11.40;;;;;;;;;;5031545;28;20136;-64
2024/03/17 12:51:55;;;;;;;30.13;10.88;;;;;;;;;;5030328;28;20083;-67
2024/03/17 12:54:22;;;;;;;26.65;10.20;;;;;;;;;;5031278;28;20064;-64
2024/03/17 13:02:40;;;;;;;39.72;11.20;;;;;;;;;;5030523;28;20123;-65
2024/03/17 13:05:09;;;;;;;30.95;11.15;;;;;;;;;;5031449;28;20045;-65
2024/03/17 13:07:35;;;;;;;35.08;11.10;;;;;;;;;;5031209;28;20442;-65
2024/03/17 13:10:00;;;;;;;38.75;12.35;;;;;;;;;;5031129;28;20483;-62
2024/03/17 13:12:27;;;;;;;47.72;11.75;;;;;;;;;;5013587;28;20037;-67
2024/03/17 13:14:52;;;;;;;33.30;10.63;;;;;;;;;;5029971;28;20124;-66
2024/03/17 13:17:18;;;;;;;33.25;10.38;;;;;;;;;;5031527;28;20550;-66
2024/03/17 13:19:48;;;;;;;43.00;12.60;;;;;;;;;;5031587;28;20033;-65
2024/03/17 13:22:13;;;;;;;36.67;10.77;;;;;;;;;;5031319;28;20044;-64
2024/03/17 13:24:39;;;;;;;39.60;13.48;;;;;;;;;;5031373;28;20045;-65
2024/03/17 13:27:06;;;;;;;37.65;12.00;;;;;;;;;;5031315;28;20502;-68
2024/03/17 13:29:44;;;;;;;38.95;12.95;;;;;;;;;;5034082;28;20038;-64
2024/03/17 13:32:09;;;;;;;32.10;11.32;;;;;;;;;;5002729;28;20034;-66
2024/03/17 13:34:35;;;;;;;35.38;11.85;;;;;;;;;;5035491;28;20036;-63
2024/03/17 13:37:03;;;;;;;40.33;11.80;;;;;;;;;;5034877;28;20129;-66
2024/03/17 13:39:31;;;;;;;34.88;11.00;;;;;;;;;;5035176;28;20087;-69
2024/03/17 13:42:02;;;;;;;37.10;11.77;;;;;;;;;;5035051;28;20057;-67
2024/03/17 13:44:27;;;;;;;45.35;12.70;;;;;;;;;;5032667;28;20051;-66
2024/03/17 13:46:53;;;;;;;37.25;11.45;;;;;;;;;;5033829;28;20128;-66
2024/03/17 13:49:19;;;;;;;46.60;11.93;;;;;;;;;;5033568;28;20053;-66
2024/03/17 13:51:44;;;;;;;32.85;11.50;;;;;;;;;;5033352;28;20075;-67
2024/03/17 13:54:10;;;;;;;52.55;13.20;;;;;;;;;;5035004;28;20025;-66
2024/03/17 13:56:36;;;;;;;48.22;12.45;;;;;;;;;;5034992;28;20045;-66
2024/03/17 13:59:01;;;;;;;40.72;11.75;;;;;;;;;;5033636;28;20120;-65
2024/03/17 14:01:27;;;;;;;38.25;11.70;;;;;;;;;;5034832;28;20033;-66
2024/03/17 14:03:52;;;;;;;41.45;11.82;;;;;;;;;;5033313;28;20506;-66
2024/03/17 14:06:19;;;;;;;48.88;12.48;;;;;;;;;;5034578;28;20037;-67
2024/03/17 14:08:44;;;;;;;46.88;12.57;;;;;;;;;;5033244;28;20068;-64
2024/03/17 14:11:13;;;;;;;39.47;11.23;;;;;;;;;;5034855;28;20034;-66
2024/03/17 14:13:39;;;;;;;32.25;11.13;;;;;;;;;;5032991;28;20033;-67
2024/03/17 14:16:04;;;;;;;40.35;10.98;;;;;;;;;;5032930;28;20041;-65
2024/03/17 14:18:33;;;;;;;40.05;11.00;;;;;;;;;;5034247;28;20041;-65
2024/03/17 14:20:59;;;;;;;48.08;12.48;;;;;;;;;;5034412;28;20572;-65
2024/03/17 14:23:25;;;;;;;41.28;11.48;;;;;;;;;;5033979;28;20045;-64
2024/03/17 14:25:50;;;;;;;42.22;11.32;;;;;;;;;;5034495;28;20064;-65
2024/03/17 14:28:16;;;;;;;45.85;11.75;;;;;;;;;;5034002;28;20494;-64